Terminal Aerodrome Forecast
Issued by NWS

Home | Current Version | Previous Version | Text Only | Print | Product List | Glossary On
Versions: 1 2 3 4 5 6 7 8 9 10 11 12 13 14 15 16 17 18 19
000
FTUS45 KSLC 161604 AAC
TAFOGD
TAF AMD
KOGD 161604Z 1616/1712 33006KT 2SM -SN BKN005 BKN016
      TEMPO 1616/1617 1/2SM SN
     FM161900 33011KT P6SM VCSH BKN025
     FM170200 32005KT P6SM BKN030 OVC070=

USA.gov is the U.S. government's official web portal to all federal, state and local government web resources and services.